createdAt,value
2019-01-22T00:00:41.720Z,71.61
2019-01-22T00:03:11.081Z,72.21
2019-01-22T00:05:40.357Z,72.23
2019-01-22T00:08:09.592Z,72.12
2019-01-22T00:10:38.857Z,72.09
2019-01-22T00:13:08.103Z,71.65
2019-01-22T00:15:37.400Z,71.82
2019-01-22T00:18:06.641Z,71.82
2019-01-22T00:20:35.915Z,71.87
2019-01-22T00:23:05.153Z,72.10
2019-01-22T00:25:34.467Z,72.06
2019-01-22T00:28:03.767Z,72.61
2019-01-22T00:30:33.051Z,72.86
2019-01-22T00:33:02.306Z,73.09
2019-01-22T00:35:31.554Z,73.43
2019-01-22T00:38:00.797Z,73.70
2019-01-22T00:40:30.058Z,73.65
2019-01-22T00:42:59.317Z,73.71
2019-01-22T00:45:28.663Z,73.57
2019-01-22T00:47:57.982Z,73.55
2019-01-22T00:50:27.286Z,73.11
2019-01-22T00:52:56.572Z,72.68
2019-01-22T00:55:25.831Z,72.25
2019-01-22T00:57:55.188Z,72.07
2019-01-22T01:00:29.916Z,71.49
2019-01-22T01:02:59.357Z,71.48
2019-01-22T01:05:28.628Z,71.39
2019-01-22T01:07:58.968Z,71.24
2019-01-22T01:10:27.300Z,71.10
2019-01-22T01:12:56.633Z,70.74
2019-01-22T01:15:25.872Z,70.79
2019-01-22T01:17:55.137Z,70.73
2019-01-22T01:20:24.416Z,70.61
2019-01-22T01:22:53.689Z,70.39
2019-01-22T01:25:23.412Z,70.43
2019-01-22T01:27:52.766Z,70.39
2019-01-22T01:30:23.852Z,70.31
2019-01-22T01:32:53.184Z,70.22
2019-01-22T01:35:22.474Z,70.51
2019-01-22T01:37:51.760Z,70.55
2019-01-22T01:40:21.089Z,70.55
2019-01-22T01:42:50.367Z,70.53
2019-01-22T01:45:19.892Z,70.18
2019-01-22T01:47:49.178Z,70.49
2019-01-22T01:50:18.942Z,70.32
2019-01-22T01:52:48.274Z,70.10
2019-01-22T01:55:18.128Z,70.23
2019-01-22T01:57:47.520Z,70.49
2019-01-22T02:00:18.774Z,70.55
2019-01-22T02:02:48.050Z,70.36
2019-01-22T02:05:17.405Z,70.20
2019-01-22T02:07:46.663Z,70.07
2019-01-22T02:10:21.114Z,70.24
2019-01-22T02:12:59.495Z,70.00
2019-01-22T02:15:41.707Z,70.14
2019-01-22T02:18:20.729Z,70.24
2019-01-22T02:21:46.826Z,70.32
2019-01-22T02:24:50.260Z,70.26
2019-01-22T02:28:16.707Z,70.33
2019-01-22T02:31:20.570Z,70.21
2019-01-22T02:34:30.054Z,70.71
2019-01-22T02:37:55.614Z,70.91
2019-01-22T02:40:59.130Z,71.04
2019-01-22T02:44:00.183Z,71.04
2019-01-22T02:46:57.258Z,70.93
2019-01-22T02:50:07.186Z,71.25
2019-01-22T02:53:05.322Z,71.26
2019-01-22T02:56:26.725Z,71.62
2019-01-22T02:59:32.212Z,71.84
2019-01-22T03:03:07.636Z,71.92
2019-01-22T03:05:56.092Z,72.26
2019-01-22T03:09:15.099Z,72.41
2019-01-22T03:12:09.532Z,72.67
2019-01-22T03:15:33.018Z,72.77
2019-01-22T03:18:31.724Z,73.25
2019-01-22T03:21:30.521Z,73.38
2019-01-22T03:24:37.336Z,73.35
2019-01-22T03:27:42.177Z,73.55
2019-01-22T03:30:44.318Z,73.81
2019-01-22T03:33:46.566Z,73.66
2019-01-22T03:37:16.057Z,74.04
2019-01-22T03:40:09.420Z,74.05
2019-01-22T03:43:23.749Z,74.21
2019-01-22T03:46:25.068Z,74.36
2019-01-22T03:49:26.097Z,74.51
2019-01-22T03:52:04.654Z,74.34
2019-01-22T03:55:06.407Z,74.66
2019-01-22T03:57:48.789Z,74.83
2019-01-22T04:00:34.392Z,74.97
2019-01-22T04:03:03.872Z,75.14
2019-01-22T04:05:33.264Z,75.20
2019-01-22T04:08:02.585Z,75.27
2019-01-22T04:10:41.036Z,75.08
2019-01-22T04:13:10.416Z,75.24
2019-01-22T04:15:44.196Z,75.12
2019-01-22T04:18:13.698Z,75.43
2019-01-22T04:20:45.635Z,75.46
2019-01-22T04:23:21.400Z,75.67
2019-01-22T04:26:10.810Z,75.54
2019-01-22T04:29:30.190Z,75.42
2019-01-22T04:32:32.142Z,75.92
2019-01-22T04:35:44.670Z,75.79
2019-01-22T04:38:36.575Z,76.09
2019-01-22T04:42:09.113Z,76.22
2019-01-22T04:45:05.132Z,75.77
2019-01-22T04:48:13.103Z,76.19
2019-01-22T04:51:08.226Z,76.34
2019-01-22T04:54:12.716Z,76.28
2019-01-22T04:56:55.386Z,76.15
2019-01-22T04:59:56.194Z,76.36
2019-01-22T05:03:10.059Z,76.15
2019-01-22T05:06:17.066Z,76.24
2019-01-22T05:09:30.160Z,76.31
2019-01-22T05:12:36.922Z,76.04
2019-01-22T05:15:38.503Z,76.37
2019-01-22T05:19:01.052Z,76.47
2019-01-22T05:22:01.452Z,76.54
2019-01-22T05:25:12.270Z,76.23
2019-01-22T05:28:15.130Z,76.07
2019-01-22T05:31:01.020Z,76.30
2019-01-22T05:34:15.015Z,76.22
2019-01-22T05:37:56.464Z,76.37
2019-01-22T05:41:02.081Z,76.27
2019-01-22T05:44:17.684Z,76.34
2019-01-22T05:47:17.023Z,76.70
2019-01-22T05:50:18.261Z,76.57
2019-01-22T05:53:20.106Z,76.68
2019-01-22T05:55:51.074Z,76.78
2019-01-22T05:59:35.626Z,76.70
2019-01-22T06:02:32.148Z,76.89
2019-01-22T06:05:51.689Z,77.05
2019-01-22T06:08:52.190Z,76.76
2019-01-22T06:11:55.719Z,77.03
2019-01-22T06:14:44.039Z,76.78
2019-01-22T06:17:51.354Z,76.83
2019-01-22T06:20:52.856Z,76.83
2019-01-22T06:24:00.303Z,77.13
2019-01-22T06:26:52.492Z,77.04
2019-01-22T06:29:33.594Z,77.41
2019-01-22T06:32:35.896Z,77.39
2019-01-22T06:35:26.861Z,77.70
2019-01-22T06:38:08.485Z,77.82
2019-01-22T06:41:13.693Z,77.65
2019-01-22T06:44:24.791Z,77.93
2019-01-22T06:47:28.289Z,77.91
2019-01-22T06:50:23.250Z,78.35
2019-01-22T06:53:25.858Z,78.25
2019-01-22T06:56:15.568Z,78.62
2019-01-22T06:59:18.410Z,78.50
2019-01-22T07:02:29.380Z,78.70
2019-01-22T07:05:04.361Z,78.33
2019-01-22T07:08:24.103Z,78.50
2019-01-22T07:11:21.142Z,78.82
2019-01-22T07:14:35.840Z,81.10
2019-01-22T07:17:27.484Z,83.53
2019-01-22T07:20:41.967Z,84.36
2019-01-22T07:23:38.040Z,81.18
2019-01-22T07:27:13.533Z,81.13
2019-01-22T07:30:22.256Z,78.38
2019-01-22T07:33:42.943Z,78.20
2019-01-22T07:36:30.902Z,77.88
2019-01-22T07:39:11.144Z,77.98
2019-01-22T07:41:55.616Z,78.07
2019-01-22T07:45:12.686Z,77.96
2019-01-22T07:48:15.026Z,78.17
2019-01-22T07:51:14.707Z,77.60
2019-01-22T07:54:24.780Z,76.82
2019-01-22T07:57:33.725Z,77.05
2019-01-22T08:00:35.461Z,76.73
2019-01-22T08:04:14.624Z,73.99
2019-01-22T08:07:12.927Z,73.01
2019-01-22T08:10:38.843Z,73.22
2019-01-22T08:13:46.416Z,72.15
2019-01-22T08:16:45.734Z,69.95
2019-01-22T08:19:27.324Z,70.71
2019-01-22T08:22:31.196Z,69.80
2019-01-22T08:25:51.308Z,68.75
2019-01-22T08:28:41.574Z,67.99
2019-01-22T08:31:51.234Z,68.41
2019-01-22T08:35:04.355Z,77.38
2019-01-22T08:38:10.329Z,78.42
2019-01-22T08:41:27.499Z,68.40
2019-01-22T08:44:18.566Z,65.82
2019-01-22T08:47:16.181Z,63.35
2019-01-22T08:50:23.020Z,63.48
2019-01-22T08:53:11.545Z,64.12
2019-01-22T08:56:16.678Z,64.59
2019-01-22T08:59:21.642Z,66.02
2019-01-22T09:02:20.690Z,70.03
2019-01-22T09:05:46.138Z,69.64
2019-01-22T09:09:06.048Z,66.36
2019-01-22T09:11:58.291Z,65.94
2019-01-22T09:15:10.900Z,65.87
2019-01-22T09:18:33.769Z,65.89
2019-01-22T09:21:55.889Z,66.34
2019-01-22T09:24:47.042Z,66.55
2019-01-22T09:27:33.362Z,67.00
2019-01-22T09:31:02.354Z,67.09
2019-01-22T09:34:22.125Z,67.09
2019-01-22T09:37:14.562Z,66.56
2019-01-22T09:39:43.846Z,66.31
2019-01-22T09:42:13.105Z,66.48
2019-01-22T09:44:42.483Z,66.54
2019-01-22T09:47:11.727Z,66.28
2019-01-22T09:49:41.102Z,66.12
2019-01-22T09:52:10.439Z,65.24
2019-01-22T09:54:39.734Z,65.50
2019-01-22T09:57:09.014Z,64.84
2019-01-22T09:59:38.355Z,65.02
2019-01-22T10:02:07.691Z,65.18
2019-01-22T10:04:37.020Z,64.44
2019-01-22T10:07:06.259Z,64.73
2019-01-22T10:09:35.519Z,63.76
2019-01-22T10:12:05.016Z,63.62
2019-01-22T10:14:34.281Z,62.97
2019-01-22T10:17:03.570Z,62.83
2019-01-22T10:19:32.838Z,62.00
2019-01-22T10:22:02.210Z,62.14
2019-01-22T10:24:31.487Z,61.94
2019-01-22T10:27:00.772Z,61.36
2019-01-22T10:29:30.035Z,61.67
2019-01-22T10:31:59.294Z,60.40
2019-01-22T10:34:28.539Z,60.66
2019-01-22T10:36:57.852Z,60.05
2019-01-22T10:39:27.110Z,59.29
2019-01-22T10:41:56.393Z,60.09
2019-01-22T10:44:25.685Z,59.85
2019-01-22T10:46:54.961Z,60.12
2019-01-22T10:49:24.202Z,59.64
2019-01-22T10:51:53.476Z,60.08
2019-01-22T10:54:22.783Z,59.53
2019-01-22T10:56:52.061Z,59.28
2019-01-22T10:59:21.383Z,59.39
2019-01-22T11:01:50.732Z,58.50
2019-01-22T11:04:20.045Z,58.90
2019-01-22T11:06:49.332Z,58.79
2019-01-22T11:09:18.646Z,57.93
2019-01-22T11:11:47.900Z,58.84
2019-01-22T11:14:17.193Z,57.92
2019-01-22T11:16:46.437Z,57.36
2019-01-22T11:19:15.800Z,57.86
2019-01-22T11:21:45.121Z,57.42
2019-01-22T11:24:14.400Z,57.50
2019-01-22T11:26:43.721Z,56.69
2019-01-22T11:29:13.124Z,55.88
2019-01-22T11:31:42.452Z,54.74
2019-01-22T11:34:11.790Z,55.05
2019-01-22T11:36:41.189Z,55.17
2019-01-22T11:39:11.224Z,54.74
2019-01-22T11:41:40.547Z,50.59
2019-01-22T11:44:09.912Z,50.63
2019-01-22T11:46:39.194Z,48.45
2019-01-22T11:49:08.474Z,47.03
2019-01-22T11:51:37.744Z,46.06
2019-01-22T11:54:07.080Z,43.62
2019-01-22T11:56:36.392Z,41.50
2019-01-22T11:59:05.694Z,42.32
2019-01-22T12:01:35.040Z,42.32
2019-01-22T12:04:04.421Z,41.82
2019-01-22T12:06:33.734Z,42.10
2019-01-22T12:09:03.104Z,41.34
2019-01-22T12:11:32.370Z,40.71
2019-01-22T12:14:01.668Z,41.38
2019-01-22T12:16:30.958Z,41.76
2019-01-22T12:19:00.315Z,42.59
2019-01-22T12:21:29.586Z,42.59
2019-01-22T12:23:58.872Z,43.27
2019-01-22T12:26:28.164Z,42.74
2019-01-22T12:28:57.438Z,42.56
2019-01-22T12:31:26.862Z,41.56
2019-01-22T12:33:56.118Z,42.02
2019-01-22T12:36:25.406Z,42.51
2019-01-22T12:38:54.652Z,42.07
2019-01-22T12:41:23.939Z,41.24
2019-01-22T12:43:53.270Z,41.29
2019-01-22T12:46:22.567Z,40.94
2019-01-22T12:48:51.904Z,40.21
2019-01-22T12:51:21.104Z,39.29
2019-01-22T12:53:50.447Z,39.34
2019-01-22T12:56:19.680Z,37.93
2019-01-22T12:58:49.043Z,37.20
2019-01-22T13:01:18.320Z,37.92
2019-01-22T13:03:47.652Z,36.55
2019-01-22T13:06:17.003Z,36.50
2019-01-22T13:08:46.254Z,36.74
2019-01-22T13:11:15.536Z,37.37
2019-01-22T13:13:44.814Z,38.68
2019-01-22T13:16:14.066Z,38.65
2019-01-22T13:18:43.363Z,38.65
2019-01-22T13:21:12.666Z,39.36
2019-01-22T13:23:41.926Z,39.35
2019-01-22T13:26:11.645Z,39.91
2019-01-22T13:28:40.542Z,39.91
2019-01-22T13:31:09.776Z,40.26
2019-01-22T13:33:39.038Z,40.94
2019-01-22T13:36:08.704Z,40.99
2019-01-22T13:38:37.980Z,42.01
2019-01-22T13:41:07.250Z,43.22
2019-01-22T13:43:36.588Z,43.22
2019-01-22T13:46:05.873Z,42.91
2019-01-22T13:48:36.033Z,42.95
2019-01-22T13:51:04.478Z,42.95
2019-01-22T13:53:33.782Z,43.17
2019-01-22T13:56:03.049Z,43.78
2019-01-22T13:58:32.344Z,43.37
2019-01-22T14:01:01.628Z,43.29
2019-01-22T14:03:30.896Z,43.41
2019-01-22T14:06:00.248Z,42.87
2019-01-22T14:08:29.552Z,43.77
2019-01-22T14:10:58.857Z,44.05
2019-01-22T14:13:28.130Z,44.66
2019-01-22T14:15:57.444Z,44.89
2019-01-22T14:18:26.777Z,45.33
2019-01-22T14:20:56.095Z,45.80
2019-01-22T14:23:25.424Z,46.25
2019-01-22T14:25:54.718Z,46.83
2019-01-22T14:28:24.026Z,47.92
2019-01-22T14:30:53.325Z,48.52
2019-01-22T14:33:22.626Z,49.40
2019-01-22T14:35:51.869Z,50.01
2019-01-22T14:38:21.170Z,50.34
2019-01-22T14:40:50.438Z,50.58
2019-01-22T14:43:19.760Z,51.00
2019-01-22T14:45:49.036Z,51.31
2019-01-22T14:48:18.361Z,52.06
2019-01-22T14:50:47.622Z,52.75
2019-01-22T14:53:16.918Z,52.87
2019-01-22T14:55:46.186Z,53.78
2019-01-22T14:58:15.492Z,54.05
2019-01-22T15:00:44.858Z,54.91
2019-01-22T15:03:14.164Z,54.52
2019-01-22T15:05:43.417Z,55.32
2019-01-22T15:08:12.724Z,56.21
2019-01-22T15:10:42.030Z,56.73
2019-01-22T15:13:11.350Z,57.57
2019-01-22T15:15:40.610Z,58.48
2019-01-22T15:18:09.899Z,58.82
2019-01-22T15:20:39.150Z,59.21
2019-01-22T15:23:08.392Z,59.85
2019-01-22T15:25:37.666Z,60.21
2019-01-22T15:28:06.958Z,60.57
2019-01-22T15:30:37.348Z,61.30
2019-01-22T15:33:07.570Z,61.82
2019-01-22T15:35:36.873Z,62.49
2019-01-22T15:38:06.152Z,62.85
2019-01-22T15:40:35.528Z,63.39
2019-01-22T15:43:04.854Z,63.98
2019-01-22T15:45:34.211Z,64.05
2019-01-22T15:48:03.497Z,64.61
2019-01-22T15:50:32.836Z,64.92
2019-01-22T15:53:02.189Z,65.13
2019-01-22T15:55:37.306Z,65.49
2019-01-22T15:58:07.043Z,65.60
2019-01-22T16:00:36.418Z,65.91
2019-01-22T16:03:05.899Z,66.05
2019-01-22T16:05:35.257Z,66.14
2019-01-22T16:08:06.552Z,66.33
2019-01-22T16:10:34.443Z,66.65
2019-01-22T16:13:03.875Z,66.52
2019-01-22T16:15:33.238Z,66.73
2019-01-22T16:18:02.548Z,66.82
2019-01-22T16:20:31.835Z,66.59
2019-01-22T16:23:01.115Z,66.77
2019-01-22T16:25:30.455Z,66.69
2019-01-22T16:27:59.739Z,66.85
2019-01-22T16:30:29.025Z,67.07
2019-01-22T16:32:58.390Z,67.02
2019-01-22T16:35:27.995Z,66.99
2019-01-22T16:37:57.392Z,66.67
2019-01-22T16:40:26.728Z,66.76
2019-01-22T16:42:56.083Z,66.96
2019-01-22T16:45:27.980Z,66.77
2019-01-22T16:47:57.273Z,67.17
2019-01-22T16:50:27.551Z,66.91
2019-01-22T16:52:56.823Z,66.73
2019-01-22T16:55:28.614Z,66.49
2019-01-22T16:57:58.147Z,66.12
2019-01-22T17:00:29.270Z,66.00
2019-01-22T17:02:58.556Z,65.98
2019-01-22T17:05:27.809Z,65.93
2019-01-22T17:07:57.079Z,65.68
2019-01-22T17:10:26.367Z,65.73
2019-01-22T17:12:55.846Z,65.79
2019-01-22T17:15:25.213Z,65.92
2019-01-22T17:17:54.638Z,65.96
2019-01-22T17:20:29.400Z,66.00
2019-01-22T17:23:02.401Z,66.09
2019-01-22T17:25:28.041Z,66.03
2019-01-22T17:27:57.428Z,66.09
2019-01-22T17:30:26.743Z,66.20
2019-01-22T17:33:27.721Z,66.31
2019-01-22T17:35:57.027Z,66.24
2019-01-22T17:38:26.342Z,66.37
2019-01-22T17:40:55.674Z,66.43
2019-01-22T17:43:24.997Z,66.49
2019-01-22T17:45:54.411Z,66.62
2019-01-22T17:48:23.774Z,66.81
2019-01-22T17:50:53.052Z,66.68
2019-01-22T17:53:22.352Z,66.87
2019-01-22T17:55:51.682Z,66.81
2019-01-22T17:58:21.005Z,66.95
2019-01-22T18:00:50.330Z,67.02
2019-01-22T18:03:19.570Z,66.80
2019-01-22T18:05:49.120Z,67.03
2019-01-22T18:08:18.429Z,67.14
2019-01-22T18:10:47.808Z,66.92
2019-01-22T18:13:17.090Z,67.02
2019-01-22T18:15:46.424Z,66.89
2019-01-22T18:18:15.846Z,67.02
2019-01-22T18:20:45.184Z,67.21
2019-01-22T18:23:14.439Z,67.26
2019-01-22T18:25:43.723Z,67.31
2019-01-22T18:28:13.184Z,67.72
2019-01-22T18:30:43.329Z,67.92
2019-01-22T18:33:11.744Z,67.99
2019-01-22T18:35:43.271Z,67.90
2019-01-22T18:38:14.714Z,68.13
2019-01-22T18:40:43.987Z,68.38
2019-01-22T18:43:13.275Z,68.46
2019-01-22T18:45:42.699Z,68.50
2019-01-22T18:48:11.985Z,68.51
2019-01-22T18:50:41.255Z,69.00
2019-01-22T18:53:10.843Z,69.21
2019-01-22T18:55:40.191Z,69.53
2019-01-22T18:58:09.525Z,69.77
2019-01-22T19:00:38.803Z,69.66
2019-01-22T19:03:08.109Z,69.95
2019-01-22T19:05:37.386Z,70.14
2019-01-22T19:08:06.697Z,70.07
2019-01-22T19:10:35.995Z,70.17
2019-01-22T19:13:05.286Z,70.35
2019-01-22T19:15:34.567Z,70.61
2019-01-22T19:18:03.923Z,70.85
2019-01-22T19:20:33.278Z,70.91
2019-01-22T19:23:02.544Z,71.13
2019-01-22T19:25:31.859Z,71.21
2019-01-22T19:28:01.163Z,71.41
2019-01-22T19:30:31.012Z,71.42
2019-01-22T19:33:00.272Z,71.50
2019-01-22T19:35:29.570Z,71.54
2019-01-22T19:37:58.901Z,71.26
2019-01-22T19:40:28.241Z,71.72
2019-01-22T19:42:57.501Z,71.52
2019-01-22T19:45:32.110Z,71.81
2019-01-22T19:48:01.392Z,72.18
2019-01-22T19:50:30.696Z,72.12
2019-01-22T19:52:59.946Z,72.19
2019-01-22T19:55:29.257Z,72.88
2019-01-22T19:57:58.539Z,73.12
2019-01-22T20:00:33.029Z,73.46
2019-01-22T20:03:02.348Z,73.55
2019-01-22T20:05:31.648Z,73.59
2019-01-22T20:08:01.000Z,73.69
2019-01-22T20:10:30.420Z,73.68
2019-01-22T20:12:59.784Z,74.05
2019-01-22T20:15:29.082Z,74.04
2019-01-22T20:17:58.398Z,73.71
2019-01-22T20:20:27.685Z,74.11
2019-01-22T20:22:56.999Z,73.56
2019-01-22T20:25:26.276Z,73.73
2019-01-22T20:27:55.697Z,73.93
2019-01-22T20:30:30.408Z,73.80
2019-01-22T20:32:59.736Z,73.66
2019-01-22T20:35:29.040Z,73.26
2019-01-22T20:37:58.324Z,73.57
2019-01-22T20:40:27.586Z,73.74
2019-01-22T20:42:56.888Z,73.68
2019-01-22T20:45:27.623Z,74.16
2019-01-22T20:47:56.949Z,73.99
2019-01-22T20:50:26.227Z,74.00
2019-01-22T20:52:55.572Z,78.58
2019-01-22T20:55:25.030Z,74.06
2019-01-22T20:57:55.274Z,73.79
2019-01-22T21:00:24.251Z,73.70
2019-01-22T21:02:53.586Z,73.66
2019-01-22T21:05:25.138Z,73.84
2019-01-22T21:07:54.436Z,73.91
2019-01-22T21:10:28.387Z,73.90
2019-01-22T21:12:57.826Z,74.04
2019-01-22T21:15:27.258Z,74.17
2019-01-22T21:17:56.677Z,73.99
2019-01-22T21:20:26.077Z,73.97
2019-01-22T21:22:55.438Z,74.04
2019-01-22T21:25:24.811Z,73.87
2019-01-22T21:27:54.143Z,73.91
2019-01-22T21:30:50.148Z,74.25
2019-01-22T21:33:19.507Z,74.35
2019-01-22T21:35:48.899Z,74.44
2019-01-22T21:38:18.314Z,74.56
2019-01-22T21:40:47.701Z,74.44
2019-01-22T21:43:17.068Z,74.78
2019-01-22T21:45:46.509Z,74.60
2019-01-22T21:48:16.042Z,80.58
2019-01-22T21:50:45.380Z,77.37
2019-01-22T21:53:14.734Z,75.58
2019-01-22T21:55:44.055Z,75.31
2019-01-22T21:58:13.371Z,74.74
2019-01-22T22:00:42.690Z,74.79
2019-01-22T22:03:12.038Z,74.64
2019-01-22T22:05:41.383Z,74.82
2019-01-22T22:08:10.710Z,74.93
2019-01-22T22:10:40.041Z,74.94
2019-01-22T22:13:09.427Z,74.88
2019-01-22T22:15:38.761Z,75.01
2019-01-22T22:18:08.093Z,75.16
2019-01-22T22:20:37.355Z,75.12
2019-01-22T22:23:06.683Z,75.44
2019-01-22T22:25:35.997Z,75.31
2019-01-22T22:28:05.334Z,75.34
2019-01-22T22:30:36.477Z,75.68
2019-01-22T22:33:06.185Z,75.75
2019-01-22T22:35:35.489Z,75.83
2019-01-22T22:38:04.856Z,75.91
2019-01-22T22:40:34.163Z,75.92
2019-01-22T22:43:03.495Z,75.97
2019-01-22T22:45:32.823Z,75.72
2019-01-22T22:48:02.197Z,76.01
2019-01-22T22:50:32.806Z,76.36
2019-01-22T22:53:02.216Z,76.11
2019-01-22T22:55:31.534Z,76.42
2019-01-22T22:58:00.929Z,76.40
2019-01-22T23:01:10.758Z,76.67
2019-01-22T23:03:40.091Z,76.73
2019-01-22T23:06:09.427Z,76.90
2019-01-22T23:08:38.770Z,76.76
2019-01-22T23:11:08.154Z,76.80
2019-01-22T23:13:37.467Z,76.95
2019-01-22T23:16:06.921Z,76.88
2019-01-22T23:18:36.195Z,76.98
2019-01-22T23:21:05.617Z,77.01
2019-01-22T23:23:34.914Z,77.04
2019-01-22T23:26:04.261Z,76.88
2019-01-22T23:28:33.552Z,76.86
2019-01-22T23:31:03.057Z,76.87
2019-01-22T23:33:32.342Z,76.86
2019-01-22T23:36:01.760Z,76.93
2019-01-22T23:38:31.105Z,77.08
2019-01-22T23:41:00.433Z,77.19
2019-01-22T23:43:29.802Z,76.99
2019-01-22T23:45:59.108Z,76.93
2019-01-22T23:48:28.377Z,76.99
2019-01-22T23:50:57.667Z,77.03
2019-01-22T23:53:26.945Z,77.00
2019-01-22T23:55:56.238Z,77.12
2019-01-22T23:58:25.564Z,76.82
